Terminal Aerodrome Forecast
Issued by NWS

Home | Current Version | Previous Version | Text Only | Print | Product List | Glossary On
Versions: 1 2 3 4 5 6 7 8 9 10 11 12 13 14 15 16 17 18 19
753
FTUS42 KFFC 052330
TAFFTY
TAF
KFTY 052330Z 0600/0624 09009KT 4SM -RADZ BR OVC005
      TEMPO 0600/0603 1SM RA BR OVC002
     FM060800 08012KT 3SM RA BR OVC004 PROB30 0609/0614 2SM TSRA
      BKN004CB
     FM061400 15008KT 3SM -RA BKN006
     FM061700 25012G20KT 5SM -SHRA SCT004 BKN015
     FM062300 31012KT P6SM BKN020=

USA.gov is the U.S. government's official web portal to all federal, state and local government web resources and services.